sensor_id;sensor_type;location;lat;lon;timestamp;P1;durP1;ratioP1;P2;durP2;ratioP2
80411;SDS011;69749;42.684;23.360;2023-07-16T00:02:19;12.98;;;8.52;;
80411;SDS011;69749;42.684;23.360;2023-07-16T00:04:45;12.45;;;9.10;;
80411;SDS011;69749;42.684;23.360;2023-07-16T00:07:10;11.57;;;8.35;;
80411;SDS011;69749;42.684;23.360;2023-07-16T00:09:36;14.65;;;9.10;;
80411;SDS011;69749;42.684;23.360;2023-07-16T00:12:01;11.40;;;8.45;;
80411;SDS011;69749;42.684;23.360;2023-07-16T00:14:27;12.27;;;8.30;;
80411;SDS011;69749;42.684;23.360;2023-07-16T00:16:53;12.48;;;8.55;;
80411;SDS011;69749;42.684;23.360;2023-07-16T00:19:18;14.73;;;8.68;;
80411;SDS011;69749;42.684;23.360;2023-07-16T00:21:43;14.25;;;7.70;;
80411;SDS011;69749;42.684;23.360;2023-07-16T00:24:09;12.43;;;8.57;;
80411;SDS011;69749;42.684;23.360;2023-07-16T00:26:34;12.95;;;8.38;;
80411;SDS011;69749;42.684;23.360;2023-07-16T00:29:00;10.88;;;7.60;;
80411;SDS011;69749;42.684;23.360;2023-07-16T00:31:25;11.68;;;7.82;;
80411;SDS011;69749;42.684;23.360;2023-07-16T00:33:50;11.73;;;8.20;;
80411;SDS011;69749;42.684;23.360;2023-07-16T00:36:16;14.63;;;7.68;;
80411;SDS011;69749;42.684;23.360;2023-07-16T00:38:41;10.32;;;7.07;;
80411;SDS011;69749;42.684;23.360;2023-07-16T00:41:07;7.97;;;7.07;;
80411;SDS011;69749;42.684;23.360;2023-07-16T00:43:33;11.50;;;7.47;;
80411;SDS011;69749;42.684;23.360;2023-07-16T00:45:58;10.73;;;7.45;;
80411;SDS011;69749;42.684;23.360;2023-07-16T00:48:24;9.10;;;6.88;;
80411;SDS011;69749;42.684;23.360;2023-07-16T00:50:50;11.10;;;6.85;;
80411;SDS011;69749;42.684;23.360;2023-07-16T00:53:17;10.63;;;7.20;;
80411;SDS011;69749;42.684;23.360;2023-07-16T00:55:43;8.70;;;6.15;;
80411;SDS011;69749;42.684;23.360;2023-07-16T00:58:08;12.63;;;7.28;;
80411;SDS011;69749;42.684;23.360;2023-07-16T01:00:34;9.80;;;7.10;;
80411;SDS011;69749;42.684;23.360;2023-07-16T01:03:02;9.90;;;6.97;;
80411;SDS011;69749;42.684;23.360;2023-07-16T01:08:35;8.85;;;6.13;;
80411;SDS011;69749;42.684;23.360;2023-07-16T01:11:06;8.35;;;6.22;;
80411;SDS011;69749;42.684;23.360;2023-07-16T01:13:32;12.93;;;6.68;;
80411;SDS011;69749;42.684;23.360;2023-07-16T01:15:59;10.38;;;6.47;;
80411;SDS011;69749;42.684;23.360;2023-07-16T01:18:24;11.93;;;6.90;;
80411;SDS011;69749;42.684;23.360;2023-07-16T01:20:49;7.65;;;6.72;;
80411;SDS011;69749;42.684;23.360;2023-07-16T01:25:59;9.43;;;6.10;;
80411;SDS011;69749;42.684;23.360;2023-07-16T01:31:37;8.50;;;6.82;;
80411;SDS011;69749;42.684;23.360;2023-07-16T01:34:05;8.57;;;6.30;;
80411;SDS011;69749;42.684;23.360;2023-07-16T01:36:31;10.50;;;6.28;;
80411;SDS011;69749;42.684;23.360;2023-07-16T01:38:58;10.23;;;7.40;;
80411;SDS011;69749;42.684;23.360;2023-07-16T01:41:24;9.50;;;6.78;;
80411;SDS011;69749;42.684;23.360;2023-07-16T01:43:50;8.57;;;6.47;;
80411;SDS011;69749;42.684;23.360;2023-07-16T01:46:15;8.13;;;5.82;;
80411;SDS011;69749;42.684;23.360;2023-07-16T01:48:40;6.63;;;5.90;;
80411;SDS011;69749;42.684;23.360;2023-07-16T01:51:06;8.30;;;5.45;;
80411;SDS011;69749;42.684;23.360;2023-07-16T01:53:31;6.07;;;5.53;;
80411;SDS011;69749;42.684;23.360;2023-07-16T01:55:57;5.28;;;4.72;;
80411;SDS011;69749;42.684;23.360;2023-07-16T01:58:23;9.50;;;5.18;;
80411;SDS011;69749;42.684;23.360;2023-07-16T02:00:49;6.50;;;4.85;;
80411;SDS011;69749;42.684;23.360;2023-07-16T02:03:15;7.72;;;5.07;;
80411;SDS011;69749;42.684;23.360;2023-07-16T02:05:40;7.50;;;5.45;;
80411;SDS011;69749;42.684;23.360;2023-07-16T02:08:06;10.70;;;5.18;;
80411;SDS011;69749;42.684;23.360;2023-07-16T02:10:31;8.05;;;5.43;;
80411;SDS011;69749;42.684;23.360;2023-07-16T02:12:57;8.80;;;5.20;;
80411;SDS011;69749;42.684;23.360;2023-07-16T02:15:22;8.65;;;5.28;;
80411;SDS011;69749;42.684;23.360;2023-07-16T02:17:48;9.43;;;5.65;;
80411;SDS011;69749;42.684;23.360;2023-07-16T02:20:13;9.75;;;5.95;;
80411;SDS011;69749;42.684;23.360;2023-07-16T02:22:39;9.63;;;6.28;;
80411;SDS011;69749;42.684;23.360;2023-07-16T02:25:04;9.52;;;5.55;;
80411;SDS011;69749;42.684;23.360;2023-07-16T02:27:30;8.57;;;6.25;;
80411;SDS011;69749;42.684;23.360;2023-07-16T02:29:56;10.98;;;5.93;;
80411;SDS011;69749;42.684;23.360;2023-07-16T02:32:21;9.07;;;5.50;;
80411;SDS011;69749;42.684;23.360;2023-07-16T02:34:47;11.55;;;6.88;;
80411;SDS011;69749;42.684;23.360;2023-07-16T02:37:12;9.98;;;5.82;;
80411;SDS011;69749;42.684;23.360;2023-07-16T02:39:38;8.52;;;5.70;;
80411;SDS011;69749;42.684;23.360;2023-07-16T02:42:04;7.93;;;4.95;;
80411;SDS011;69749;42.684;23.360;2023-07-16T02:44:29;11.13;;;5.85;;
80411;SDS011;69749;42.684;23.360;2023-07-16T02:46:55;8.82;;;6.20;;
80411;SDS011;69749;42.684;23.360;2023-07-16T02:49:20;7.85;;;5.07;;
80411;SDS011;69749;42.684;23.360;2023-07-16T02:51:45;9.18;;;5.40;;
80411;SDS011;69749;42.684;23.360;2023-07-16T02:54:11;7.75;;;5.05;;
80411;SDS011;69749;42.684;23.360;2023-07-16T02:56:36;7.20;;;5.18;;
80411;SDS011;69749;42.684;23.360;2023-07-16T02:59:02;7.63;;;5.20;;
80411;SDS011;69749;42.684;23.360;2023-07-16T03:01:27;6.80;;;5.47;;
80411;SDS011;69749;42.684;23.360;2023-07-16T03:03:53;9.68;;;5.15;;
80411;SDS011;69749;42.684;23.360;2023-07-16T03:06:18;7.28;;;5.00;;
80411;SDS011;69749;42.684;23.360;2023-07-16T03:08:43;6.43;;;5.50;;
80411;SDS011;69749;42.684;23.360;2023-07-16T03:11:10;9.93;;;6.18;;
80411;SDS011;69749;42.684;23.360;2023-07-16T03:13:36;8.88;;;5.43;;
80411;SDS011;69749;42.684;23.360;2023-07-16T03:16:01;7.78;;;5.43;;
80411;SDS011;69749;42.684;23.360;2023-07-16T03:18:30;11.45;;;6.20;;
80411;SDS011;69749;42.684;23.360;2023-07-16T03:20:56;9.07;;;5.90;;
80411;SDS011;69749;42.684;23.360;2023-07-16T03:23:22;9.63;;;5.93;;
80411;SDS011;69749;42.684;23.360;2023-07-16T03:25:48;7.10;;;5.65;;
80411;SDS011;69749;42.684;23.360;2023-07-16T03:28:14;7.95;;;5.43;;
80411;SDS011;69749;42.684;23.360;2023-07-16T03:30:39;8.27;;;5.30;;
80411;SDS011;69749;42.684;23.360;2023-07-16T03:33:05;7.65;;;5.25;;
80411;SDS011;69749;42.684;23.360;2023-07-16T03:35:30;5.57;;;4.72;;
80411;SDS011;69749;42.684;23.360;2023-07-16T03:37:56;6.85;;;4.90;;
80411;SDS011;69749;42.684;23.360;2023-07-16T03:40:24;8.00;;;5.35;;
80411;SDS011;69749;42.684;23.360;2023-07-16T03:42:50;8.70;;;5.25;;
80411;SDS011;69749;42.684;23.360;2023-07-16T03:45:16;11.05;;;5.60;;
80411;SDS011;69749;42.684;23.360;2023-07-16T03:47:42;7.50;;;5.25;;
80411;SDS011;69749;42.684;23.360;2023-07-16T03:50:07;6.35;;;5.35;;
80411;SDS011;69749;42.684;23.360;2023-07-16T03:52:33;9.05;;;5.70;;
80411;SDS011;69749;42.684;23.360;2023-07-16T03:54:59;11.27;;;5.55;;
80411;SDS011;69749;42.684;23.360;2023-07-16T03:57:25;8.38;;;5.70;;
80411;SDS011;69749;42.684;23.360;2023-07-16T03:59:53;8.68;;;5.88;;
80411;SDS011;69749;42.684;23.360;2023-07-16T04:02:18;9.00;;;6.03;;
80411;SDS011;69749;42.684;23.360;2023-07-16T04:04:44;9.25;;;5.95;;
80411;SDS011;69749;42.684;23.360;2023-07-16T04:07:09;9.85;;;5.97;;
80411;SDS011;69749;42.684;23.360;2023-07-16T04:09:37;6.82;;;5.68;;
80411;SDS011;69749;42.684;23.360;2023-07-16T04:12:03;8.15;;;5.57;;
80411;SDS011;69749;42.684;23.360;2023-07-16T04:14:29;9.60;;;5.40;;
80411;SDS011;69749;42.684;23.360;2023-07-16T04:16:54;9.82;;;5.85;;
80411;SDS011;69749;42.684;23.360;2023-07-16T04:19:20;8.43;;;6.13;;
80411;SDS011;69749;42.684;23.360;2023-07-16T04:21:45;10.63;;;6.10;;
80411;SDS011;69749;42.684;23.360;2023-07-16T04:24:11;7.53;;;5.82;;
80411;SDS011;69749;42.684;23.360;2023-07-16T04:26:36;11.07;;;5.43;;
80411;SDS011;69749;42.684;23.360;2023-07-16T04:29:01;7.80;;;5.90;;
80411;SDS011;69749;42.684;23.360;2023-07-16T04:31:27;7.22;;;5.40;;
80411;SDS011;69749;42.684;23.360;2023-07-16T04:33:52;7.22;;;5.57;;
80411;SDS011;69749;42.684;23.360;2023-07-16T04:36:18;10.80;;;5.22;;
80411;SDS011;69749;42.684;23.360;2023-07-16T04:38:43;10.75;;;6.20;;
80411;SDS011;69749;42.684;23.360;2023-07-16T04:41:08;8.88;;;5.95;;
80411;SDS011;69749;42.684;23.360;2023-07-16T04:43:34;8.85;;;5.55;;
80411;SDS011;69749;42.684;23.360;2023-07-16T04:45:59;7.50;;;5.57;;
80411;SDS011;69749;42.684;23.360;2023-07-16T04:48:25;9.30;;;5.40;;
80411;SDS011;69749;42.684;23.360;2023-07-16T04:50:51;13.38;;;5.70;;
80411;SDS011;69749;42.684;23.360;2023-07-16T04:53:22;8.35;;;5.65;;
80411;SDS011;69749;42.684;23.360;2023-07-16T04:55:48;8.23;;;5.07;;
80411;SDS011;69749;42.684;23.360;2023-07-16T04:58:14;9.57;;;5.60;;
80411;SDS011;69749;42.684;23.360;2023-07-16T05:00:39;6.45;;;5.25;;
80411;SDS011;69749;42.684;23.360;2023-07-16T05:03:05;7.85;;;5.50;;
80411;SDS011;69749;42.684;23.360;2023-07-16T05:05:30;6.20;;;5.60;;
80411;SDS011;69749;42.684;23.360;2023-07-16T05:07:56;6.30;;;5.18;;
80411;SDS011;69749;42.684;23.360;2023-07-16T05:10:21;8.85;;;5.80;;
80411;SDS011;69749;42.684;23.360;2023-07-16T05:12:47;9.05;;;6.00;;
80411;SDS011;69749;42.684;23.360;2023-07-16T05:15:12;7.75;;;5.03;;
80411;SDS011;69749;42.684;23.360;2023-07-16T05:17:38;11.05;;;5.93;;
80411;SDS011;69749;42.684;23.360;2023-07-16T05:20:04;5.82;;;5.00;;
80411;SDS011;69749;42.684;23.360;2023-07-16T05:22:30;10.43;;;5.40;;
80411;SDS011;69749;42.684;23.360;2023-07-16T05:24:55;8.45;;;5.03;;
80411;SDS011;69749;42.684;23.360;2023-07-16T05:27:21;8.25;;;4.82;;
80411;SDS011;69749;42.684;23.360;2023-07-16T05:29:47;7.63;;;5.55;;
80411;SDS011;69749;42.684;23.360;2023-07-16T05:32:13;8.82;;;5.15;;
80411;SDS011;69749;42.684;23.360;2023-07-16T05:34:39;5.63;;;4.78;;
80411;SDS011;69749;42.684;23.360;2023-07-16T05:37:04;6.97;;;5.50;;
80411;SDS011;69749;42.684;23.360;2023-07-16T05:39:30;6.80;;;4.88;;
80411;SDS011;69749;42.684;23.360;2023-07-16T05:41:55;6.47;;;4.80;;
80411;SDS011;69749;42.684;23.360;2023-07-16T05:44:21;10.60;;;4.93;;
80411;SDS011;69749;42.684;23.360;2023-07-16T05:46:46;7.25;;;4.70;;
80411;SDS011;69749;42.684;23.360;2023-07-16T05:49:13;7.10;;;5.28;;
80411;SDS011;69749;42.684;23.360;2023-07-16T05:51:38;8.20;;;5.05;;
80411;SDS011;69749;42.684;23.360;2023-07-16T05:54:04;6.68;;;5.25;;
80411;SDS011;69749;42.684;23.360;2023-07-16T05:56:29;7.35;;;5.22;;
80411;SDS011;69749;42.684;23.360;2023-07-16T05:58:55;10.23;;;5.25;;
80411;SDS011;69749;42.684;23.360;2023-07-16T06:01:21;5.40;;;4.55;;
80411;SDS011;69749;42.684;23.360;2023-07-16T06:03:47;9.90;;;5.20;;
80411;SDS011;69749;42.684;23.360;2023-07-16T06:06:12;7.75;;;5.30;;
80411;SDS011;69749;42.684;23.360;2023-07-16T06:08:37;6.20;;;4.80;;
80411;SDS011;69749;42.684;23.360;2023-07-16T06:11:03;5.28;;;4.57;;
80411;SDS011;69749;42.684;23.360;2023-07-16T06:13:29;6.68;;;4.75;;
80411;SDS011;69749;42.684;23.360;2023-07-16T06:15:54;6.00;;;4.80;;
80411;SDS011;69749;42.684;23.360;2023-07-16T06:18:20;7.45;;;5.25;;
80411;SDS011;69749;42.684;23.360;2023-07-16T06:20:45;6.18;;;4.28;;
80411;SDS011;69749;42.684;23.360;2023-07-16T06:23:14;7.35;;;4.40;;
80411;SDS011;69749;42.684;23.360;2023-07-16T06:25:41;7.85;;;4.80;;
80411;SDS011;69749;42.684;23.360;2023-07-16T06:28:11;6.60;;;5.20;;
80411;SDS011;69749;42.684;23.360;2023-07-16T06:30:37;4.97;;;4.47;;
80411;SDS011;69749;42.684;23.360;2023-07-16T06:33:03;5.53;;;4.50;;
80411;SDS011;69749;42.684;23.360;2023-07-16T06:35:28;5.95;;;4.47;;
80411;SDS011;69749;42.684;23.360;2023-07-16T06:37:54;6.30;;;4.22;;
80411;SDS011;69749;42.684;23.360;2023-07-16T06:40:19;8.02;;;4.80;;
80411;SDS011;69749;42.684;23.360;2023-07-16T06:42:44;6.88;;;4.72;;
80411;SDS011;69749;42.684;23.360;2023-07-16T06:45:10;7.70;;;4.85;;
80411;SDS011;69749;42.684;23.360;2023-07-16T06:47:35;6.00;;;4.53;;
80411;SDS011;69749;42.684;23.360;2023-07-16T06:50:01;6.88;;;4.80;;
80411;SDS011;69749;42.684;23.360;2023-07-16T06:52:26;5.13;;;4.63;;
80411;SDS011;69749;42.684;23.360;2023-07-16T06:54:56;5.85;;;4.65;;
80411;SDS011;69749;42.684;23.360;2023-07-16T06:57:22;5.22;;;4.20;;
80411;SDS011;69749;42.684;23.360;2023-07-16T06:59:48;6.43;;;4.60;;
80411;SDS011;69749;42.684;23.360;2023-07-16T07:02:13;5.28;;;4.78;;
80411;SDS011;69749;42.684;23.360;2023-07-16T07:04:38;8.02;;;4.78;;
80411;SDS011;69749;42.684;23.360;2023-07-16T07:07:04;7.82;;;4.32;;
80411;SDS011;69749;42.684;23.360;2023-07-16T07:09:29;5.53;;;4.53;;
80411;SDS011;69749;42.684;23.360;2023-07-16T07:11:55;6.10;;;4.28;;
80411;SDS011;69749;42.684;23.360;2023-07-16T07:14:20;5.32;;;4.13;;
80411;SDS011;69749;42.684;23.360;2023-07-16T07:16:46;7.28;;;4.15;;
80411;SDS011;69749;42.684;23.360;2023-07-16T07:19:11;4.60;;;4.00;;
80411;SDS011;69749;42.684;23.360;2023-07-16T07:21:37;5.00;;;4.20;;
80411;SDS011;69749;42.684;23.360;2023-07-16T07:24:02;5.40;;;3.85;;
80411;SDS011;69749;42.684;23.360;2023-07-16T07:26:28;6.65;;;4.47;;
80411;SDS011;69749;42.684;23.360;2023-07-16T07:28:53;5.75;;;3.63;;
80411;SDS011;69749;42.684;23.360;2023-07-16T07:31:19;7.00;;;4.20;;
80411;SDS011;69749;42.684;23.360;2023-07-16T07:33:44;7.15;;;4.32;;
80411;SDS011;69749;42.684;23.360;2023-07-16T07:36:09;5.10;;;4.45;;
80411;SDS011;69749;42.684;23.360;2023-07-16T07:38:35;5.25;;;4.30;;
80411;SDS011;69749;42.684;23.360;2023-07-16T07:41:00;4.85;;;4.35;;
80411;SDS011;69749;42.684;23.360;2023-07-16T07:43:26;7.00;;;4.45;;
80411;SDS011;69749;42.684;23.360;2023-07-16T07:45:51;5.38;;;4.88;;
80411;SDS011;69749;42.684;23.360;2023-07-16T07:48:17;7.65;;;4.72;;
80411;SDS011;69749;42.684;23.360;2023-07-16T07:50:42;6.18;;;5.18;;
80411;SDS011;69749;42.684;23.360;2023-07-16T07:53:08;7.93;;;5.63;;
80411;SDS011;69749;42.684;23.360;2023-07-16T07:55:33;8.13;;;5.03;;
80411;SDS011;69749;42.684;23.360;2023-07-16T07:58:00;6.22;;;5.10;;
80411;SDS011;69749;42.684;23.360;2023-07-16T08:00:26;5.32;;;4.35;;
80411;SDS011;69749;42.684;23.360;2023-07-16T08:02:51;6.07;;;5.20;;
80411;SDS011;69749;42.684;23.360;2023-07-16T08:05:16;7.65;;;5.00;;
80411;SDS011;69749;42.684;23.360;2023-07-16T08:07:42;6.65;;;4.65;;
80411;SDS011;69749;42.684;23.360;2023-07-16T08:10:07;5.75;;;5.15;;
80411;SDS011;69749;42.684;23.360;2023-07-16T08:12:33;9.52;;;5.18;;
80411;SDS011;69749;42.684;23.360;2023-07-16T08:14:59;6.88;;;5.15;;
80411;SDS011;69749;42.684;23.360;2023-07-16T08:17:24;9.35;;;5.63;;
80411;SDS011;69749;42.684;23.360;2023-07-16T08:19:50;5.63;;;4.88;;
80411;SDS011;69749;42.684;23.360;2023-07-16T08:22:15;8.13;;;5.43;;
80411;SDS011;69749;42.684;23.360;2023-07-16T08:24:40;6.70;;;5.60;;
80411;SDS011;69749;42.684;23.360;2023-07-16T08:27:06;9.82;;;5.13;;
80411;SDS011;69749;42.684;23.360;2023-07-16T08:29:31;7.35;;;5.75;;
80411;SDS011;69749;42.684;23.360;2023-07-16T08:31:57;9.88;;;5.47;;
80411;SDS011;69749;42.684;23.360;2023-07-16T08:34:22;7.53;;;5.78;;
80411;SDS011;69749;42.684;23.360;2023-07-16T08:36:47;10.80;;;6.38;;
80411;SDS011;69749;42.684;23.360;2023-07-16T08:39:13;7.20;;;5.55;;
80411;SDS011;69749;42.684;23.360;2023-07-16T08:41:39;6.85;;;5.65;;
80411;SDS011;69749;42.684;23.360;2023-07-16T08:44:04;8.10;;;6.18;;
80411;SDS011;69749;42.684;23.360;2023-07-16T08:46:30;7.45;;;5.70;;
80411;SDS011;69749;42.684;23.360;2023-07-16T08:48:56;8.70;;;5.93;;
80411;SDS011;69749;42.684;23.360;2023-07-16T08:51:21;6.80;;;5.47;;
80411;SDS011;69749;42.684;23.360;2023-07-16T08:53:49;8.23;;;5.93;;
80411;SDS011;69749;42.684;23.360;2023-07-16T08:56:15;9.40;;;5.95;;
80411;SDS011;69749;42.684;23.360;2023-07-16T08:58:40;7.97;;;6.00;;
80411;SDS011;69749;42.684;23.360;2023-07-16T09:01:08;9.77;;;6.28;;
80411;SDS011;69749;42.684;23.360;2023-07-16T09:06:01;9.32;;;6.15;;
80411;SDS011;69749;42.684;23.360;2023-07-16T09:08:28;10.82;;;6.43;;
80411;SDS011;69749;42.684;23.360;2023-07-16T09:10:56;7.10;;;6.22;;
80411;SDS011;69749;42.684;23.360;2023-07-16T09:13:23;7.68;;;6.88;;
80411;SDS011;69749;42.684;23.360;2023-07-16T09:15:56;11.15;;;6.22;;
80411;SDS011;69749;42.684;23.360;2023-07-16T09:18:24;8.13;;;6.03;;
80411;SDS011;69749;42.684;23.360;2023-07-16T09:20:56;11.45;;;7.10;;
80411;SDS011;69749;42.684;23.360;2023-07-16T09:23:29;8.68;;;6.38;;
80411;SDS011;69749;42.684;23.360;2023-07-16T09:25:55;9.20;;;6.70;;
80411;SDS011;69749;42.684;23.360;2023-07-16T09:28:21;8.95;;;7.32;;
80411;SDS011;69749;42.684;23.360;2023-07-16T09:30:47;12.15;;;7.35;;
80411;SDS011;69749;42.684;23.360;2023-07-16T09:33:14;12.27;;;7.97;;
80411;SDS011;69749;42.684;23.360;2023-07-16T09:35:41;10.80;;;7.75;;
80411;SDS011;69749;42.684;23.360;2023-07-16T09:38:07;9.55;;;7.70;;
80411;SDS011;69749;42.684;23.360;2023-07-16T09:40:37;11.07;;;8.10;;
80411;SDS011;69749;42.684;23.360;2023-07-16T09:43:03;9.80;;;8.30;;
80411;SDS011;69749;42.684;23.360;2023-07-16T09:45:29;10.73;;;8.00;;
80411;SDS011;69749;42.684;23.360;2023-07-16T09:47:55;12.35;;;9.18;;
80411;SDS011;69749;42.684;23.360;2023-07-16T09:50:22;10.88;;;8.30;;
80411;SDS011;69749;42.684;23.360;2023-07-16T09:52:48;12.55;;;7.93;;
80411;SDS011;69749;42.684;23.360;2023-07-16T09:55:15;10.85;;;7.72;;
80411;SDS011;69749;42.684;23.360;2023-07-16T09:57:42;10.57;;;7.95;;
80411;SDS011;69749;42.684;23.360;2023-07-16T10:00:09;12.05;;;7.93;;
80411;SDS011;69749;42.684;23.360;2023-07-16T10:02:37;11.27;;;7.75;;
80411;SDS011;69749;42.684;23.360;2023-07-16T10:07:42;9.32;;;7.63;;
80411;SDS011;69749;42.684;23.360;2023-07-16T10:10:08;10.68;;;8.10;;
80411;SDS011;69749;42.684;23.360;2023-07-16T10:12:36;11.93;;;7.65;;
80411;SDS011;69749;42.684;23.360;2023-07-16T10:15:03;9.43;;;7.80;;
80411;SDS011;69749;42.684;23.360;2023-07-16T10:17:30;10.05;;;7.80;;
80411;SDS011;69749;42.684;23.360;2023-07-16T10:25:24;10.70;;;8.13;;
80411;SDS011;69749;42.684;23.360;2023-07-16T10:27:49;11.07;;;7.97;;
80411;SDS011;69749;42.684;23.360;2023-07-16T10:30:16;10.88;;;8.88;;
80411;SDS011;69749;42.684;23.360;2023-07-16T10:32:42;9.32;;;7.82;;
80411;SDS011;69749;42.684;23.360;2023-07-16T10:35:08;14.07;;;9.07;;
80411;SDS011;69749;42.684;23.360;2023-07-16T10:37:34;9.32;;;8.13;;
80411;SDS011;69749;42.684;23.360;2023-07-16T10:40:00;12.38;;;8.00;;
80411;SDS011;69749;42.684;23.360;2023-07-16T10:42:28;12.40;;;8.88;;
80411;SDS011;69749;42.684;23.360;2023-07-16T10:44:56;12.32;;;8.63;;
80411;SDS011;69749;42.684;23.360;2023-07-16T10:47:24;11.48;;;8.43;;
80411;SDS011;69749;42.684;23.360;2023-07-16T10:49:51;11.45;;;8.18;;
80411;SDS011;69749;42.684;23.360;2023-07-16T10:52:20;13.15;;;8.23;;
80411;SDS011;69749;42.684;23.360;2023-07-16T10:54:46;14.13;;;8.75;;
80411;SDS011;69749;42.684;23.360;2023-07-16T10:57:13;13.73;;;8.63;;
80411;SDS011;69749;42.684;23.360;2023-07-16T10:59:39;12.57;;;8.80;;
80411;SDS011;69749;42.684;23.360;2023-07-16T11:02:08;12.57;;;9.45;;
80411;SDS011;69749;42.684;23.360;2023-07-16T11:04:35;14.65;;;8.57;;
80411;SDS011;69749;42.684;23.360;2023-07-16T11:07:07;13.45;;;9.07;;
80411;SDS011;69749;42.684;23.360;2023-07-16T11:09:34;12.68;;;8.85;;
80411;SDS011;69749;42.684;23.360;2023-07-16T11:12:05;10.65;;;8.73;;
80411;SDS011;69749;42.684;23.360;2023-07-16T11:14:32;12.38;;;8.52;;
80411;SDS011;69749;42.684;23.360;2023-07-16T11:17:06;10.20;;;8.38;;
80411;SDS011;69749;42.684;23.360;2023-07-16T11:19:33;10.45;;;8.23;;
80411;SDS011;69749;42.684;23.360;2023-07-16T11:22:00;14.23;;;9.73;;
80411;SDS011;69749;42.684;23.360;2023-07-16T11:24:26;10.95;;;8.65;;
80411;SDS011;69749;42.684;23.360;2023-07-16T11:26:52;12.45;;;9.27;;
80411;SDS011;69749;42.684;23.360;2023-07-16T11:29:20;11.38;;;8.80;;
80411;SDS011;69749;42.684;23.360;2023-07-16T11:31:48;12.43;;;8.73;;
80411;SDS011;69749;42.684;23.360;2023-07-16T11:34:15;11.85;;;8.25;;
80411;SDS011;69749;42.684;23.360;2023-07-16T11:36:41;13.40;;;8.43;;
80411;SDS011;69749;42.684;23.360;2023-07-16T11:39:06;16.27;;;9.13;;
80411;SDS011;69749;42.684;23.360;2023-07-16T11:41:32;12.40;;;8.50;;
80411;SDS011;69749;42.684;23.360;2023-07-16T11:44:00;10.32;;;8.95;;
80411;SDS011;69749;42.684;23.360;2023-07-16T11:46:32;12.70;;;8.60;;
80411;SDS011;69749;42.684;23.360;2023-07-16T11:48:59;18.40;;;9.93;;
80411;SDS011;69749;42.684;23.360;2023-07-16T11:51:25;10.93;;;8.55;;
80411;SDS011;69749;42.684;23.360;2023-07-16T11:53:50;15.38;;;9.13;;
80411;SDS011;69749;42.684;23.360;2023-07-16T11:56:16;12.35;;;8.77;;
80411;SDS011;69749;42.684;23.360;2023-07-16T11:58:41;12.80;;;9.15;;
80411;SDS011;69749;42.684;23.360;2023-07-16T12:01:06;13.55;;;9.15;;
80411;SDS011;69749;42.684;23.360;2023-07-16T12:03:32;9.93;;;8.90;;
80411;SDS011;69749;42.684;23.360;2023-07-16T12:05:57;13.35;;;8.00;;
80411;SDS011;69749;42.684;23.360;2023-07-16T12:08:23;10.20;;;8.60;;
80411;SDS011;69749;42.684;23.360;2023-07-16T12:10:48;11.30;;;8.63;;
80411;SDS011;69749;42.684;23.360;2023-07-16T12:13:13;11.32;;;8.05;;
80411;SDS011;69749;42.684;23.360;2023-07-16T12:15:39;11.02;;;8.35;;
80411;SDS011;69749;42.684;23.360;2023-07-16T12:18:04;14.73;;;8.65;;
80411;SDS011;69749;42.684;23.360;2023-07-16T12:20:30;12.18;;;8.77;;
80411;SDS011;69749;42.684;23.360;2023-07-16T12:22:55;10.23;;;8.65;;
80411;SDS011;69749;42.684;23.360;2023-07-16T12:25:20;11.40;;;8.57;;
80411;SDS011;69749;42.684;23.360;2023-07-16T12:27:46;12.20;;;8.57;;
80411;SDS011;69749;42.684;23.360;2023-07-16T12:30:11;11.20;;;8.25;;
80411;SDS011;69749;42.684;23.360;2023-07-16T12:32:37;12.32;;;8.57;;
80411;SDS011;69749;42.684;23.360;2023-07-16T12:35:03;10.52;;;8.32;;
80411;SDS011;69749;42.684;23.360;2023-07-16T12:37:29;12.18;;;7.85;;
80411;SDS011;69749;42.684;23.360;2023-07-16T12:39:55;11.65;;;8.23;;
80411;SDS011;69749;42.684;23.360;2023-07-16T12:42:21;15.93;;;9.38;;
80411;SDS011;69749;42.684;23.360;2023-07-16T12:44:46;10.30;;;8.00;;
80411;SDS011;69749;42.684;23.360;2023-07-16T12:47:12;11.15;;;8.65;;
80411;SDS011;69749;42.684;23.360;2023-07-16T12:49:37;11.15;;;8.50;;
80411;SDS011;69749;42.684;23.360;2023-07-16T12:52:02;12.57;;;8.25;;
80411;SDS011;69749;42.684;23.360;2023-07-16T12:54:28;13.57;;;7.97;;
80411;SDS011;69749;42.684;23.360;2023-07-16T12:56:54;10.95;;;8.85;;
80411;SDS011;69749;42.684;23.360;2023-07-16T12:59:20;14.23;;;8.93;;
80411;SDS011;69749;42.684;23.360;2023-07-16T13:01:45;10.70;;;7.88;;
80411;SDS011;69749;42.684;23.360;2023-07-16T13:04:11;12.02;;;8.30;;
80411;SDS011;69749;42.684;23.360;2023-07-16T13:06:36;10.88;;;7.25;;
80411;SDS011;69749;42.684;23.360;2023-07-16T13:09:02;10.77;;;7.88;;
80411;SDS011;69749;42.684;23.360;2023-07-16T13:11:28;13.85;;;8.15;;
80411;SDS011;69749;42.684;23.360;2023-07-16T13:13:53;13.18;;;8.43;;
80411;SDS011;69749;42.684;23.360;2023-07-16T13:16:19;10.63;;;7.72;;
80411;SDS011;69749;42.684;23.360;2023-07-16T13:18:44;16.63;;;7.70;;
80411;SDS011;69749;42.684;23.360;2023-07-16T13:21:09;11.25;;;7.88;;
80411;SDS011;69749;42.684;23.360;2023-07-16T13:23:35;10.50;;;7.28;;
80411;SDS011;69749;42.684;23.360;2023-07-16T13:26:00;11.35;;;7.38;;
80411;SDS011;69749;42.684;23.360;2023-07-16T13:28:26;8.35;;;7.45;;
80411;SDS011;69749;42.684;23.360;2023-07-16T13:30:53;8.63;;;6.90;;
80411;SDS011;69749;42.684;23.360;2023-07-16T13:33:19;8.95;;;7.45;;
80411;SDS011;69749;42.684;23.360;2023-07-16T13:35:44;10.65;;;7.75;;
80411;SDS011;69749;42.684;23.360;2023-07-16T13:38:10;11.18;;;7.30;;
80411;SDS011;69749;42.684;23.360;2023-07-16T13:40:35;11.50;;;7.05;;
80411;SDS011;69749;42.684;23.360;2023-07-16T13:43:00;9.98;;;7.28;;
80411;SDS011;69749;42.684;23.360;2023-07-16T13:45:26;9.30;;;7.38;;
80411;SDS011;69749;42.684;23.360;2023-07-16T13:47:51;12.48;;;9.20;;
80411;SDS011;69749;42.684;23.360;2023-07-16T13:50:17;12.18;;;7.20;;
80411;SDS011;69749;42.684;23.360;2023-07-16T13:55:09;10.20;;;7.50;;
80411;SDS011;69749;42.684;23.360;2023-07-16T13:57:35;13.45;;;7.20;;
80411;SDS011;69749;42.684;23.360;2023-07-16T14:00:00;14.07;;;7.32;;
80411;SDS011;69749;42.684;23.360;2023-07-16T14:02:26;10.32;;;7.60;;
80411;SDS011;69749;42.684;23.360;2023-07-16T14:04:51;9.98;;;7.20;;
80411;SDS011;69749;42.684;23.360;2023-07-16T14:07:16;11.35;;;6.95;;
80411;SDS011;69749;42.684;23.360;2023-07-16T14:09:42;11.52;;;7.00;;
80411;SDS011;69749;42.684;23.360;2023-07-16T14:12:07;14.68;;;8.15;;
80411;SDS011;69749;42.684;23.360;2023-07-16T14:14:33;9.00;;;7.20;;
80411;SDS011;69749;42.684;23.360;2023-07-16T14:16:58;10.20;;;6.65;;
80411;SDS011;69749;42.684;23.360;2023-07-16T14:19:24;9.10;;;8.10;;
80411;SDS011;69749;42.684;23.360;2023-07-16T14:21:49;9.68;;;7.30;;
80411;SDS011;69749;42.684;23.360;2023-07-16T14:24:15;14.48;;;7.82;;
80411;SDS011;69749;42.684;23.360;2023-07-16T14:26:40;10.60;;;7.53;;
80411;SDS011;69749;42.684;23.360;2023-07-16T14:29:05;11.52;;;7.57;;
80411;SDS011;69749;42.684;23.360;2023-07-16T14:31:31;10.77;;;7.47;;
80411;SDS011;69749;42.684;23.360;2023-07-16T14:33:56;9.75;;;7.35;;
80411;SDS011;69749;42.684;23.360;2023-07-16T14:36:22;10.52;;;7.57;;
80411;SDS011;69749;42.684;23.360;2023-07-16T14:38:48;11.18;;;7.65;;
80411;SDS011;69749;42.684;23.360;2023-07-16T14:41:14;9.43;;;7.53;;
80411;SDS011;69749;42.684;23.360;2023-07-16T14:43:39;11.90;;;7.97;;